| time (UTC) | temp C | wind direction | speed KPH | gust KPH | rain 1hr cm | rain 24hr cm | rain mn cm | humidity % | barometer mb |
| 20260508043204 | 12 | 272 | 0.0 | 8.0 | 0.00 | 0.10 | 0.00 | 55 | 1014.6 |
| 20260508042705 | 12 | 305 | 1.6 | 9.7 | 0.00 | 0.10 | 0.00 | 56 | 1014.6 |
| 20260508042205 | 12 | 333 | 0.0 | 9.7 | 0.00 | 0.10 | 0.00 | 56 | 1014.5 |
| 20260508041705 | 12 | 332 | 1.6 | 9.7 | 0.00 | 0.10 | 0.00 | 56 | 1014.5 |
| 20260508041205 | 12 | 308 | 0.0 | 8.0 | 0.00 | 0.10 | 0.00 | 55 | 1014.5 |
| 20260508040704 | 12 | 316 | 1.6 | 8.0 | 0.00 | 0.10 | 0.00 | 55 | 1014.5 |
| 20260508040205 | 12 | 302 | 3.2 | 4.8 | 0.00 | 0.10 | 0.00 | 53 | 1014.3 |
| 20260508035705 | 12 | 322 | 1.6 | 9.7 | 0.00 | 0.10 | 0.10 | 53 | 1014.3 |
| 20260508035204 | 12 | 346 | 1.6 | 9.7 | 0.00 | 0.10 | 0.10 | 52 | 1014.3 |
| 20260508034704 | 12 | 319 | 3.2 | 11.3 | 0.00 | 0.10 | 0.10 | 52 | 1014.3 |
| 20260508034205 | 12 | 314 | 3.2 | 11.3 | 0.00 | 0.10 | 0.10 | 52 | 1014.2 |
| 20260508033204 | 13 | 332 | 8.0 | 14.5 | 0.00 | 0.10 | 0.10 | 52 | 1014.3 |
| 20260508032705 | 13 | 320 | 6.4 | 14.5 | 0.00 | 0.10 | 0.10 | 51 | 1014.2 |
| 20260508032204 | 13 | 2 | 4.8 | 14.5 | 0.00 | 0.10 | 0.10 | 51 | 1014.0 |
| 20260508031706 | 13 | 328 | 8.0 | 19.3 | 0.00 | 0.10 | 0.10 | 52 | 1013.9 |
| 20260508031205 | 13 | 351 | 9.7 | 19.3 | 0.00 | 0.10 | 0.10 | 51 | 1013.9 |
| 20260508030705 | 13 | 329 | 8.0 | 19.3 | 0.00 | 0.10 | 0.10 | 52 | 1013.9 |
| 20260508030205 | 13 | 328 | 11.3 | 19.3 | 0.00 | 0.10 | 0.10 | 50 | 1013.8 |
| 20260508025705 | 13 | 336 | 8.0 | 16.1 | 0.00 | 0.10 | 0.10 | 50 | 1013.8 |
| 20260508025204 | 13 | 345 | 8.0 | 14.5 | 0.00 | 0.13 | 0.10 | 52 | 1013.7 |
| 20260508024705 | 13 | 310 | 4.8 | 12.9 | 0.00 | 0.13 | 0.10 | 53 | 1013.7 |
| 20260508024205 | 13 | 333 | 8.0 | 12.9 | 0.00 | 0.13 | 0.10 | 53 | 1013.6 |
| 20260508023705 | 13 | 327 | 1.6 | 12.9 | 0.00 | 0.15 | 0.10 | 55 | 1013.6 |
| 20260508023205 | 13 | 306 | 0.0 | 8.0 | 0.00 | 0.15 | 0.10 | 56 | 1013.6 |
| 20260508022705 | 13 | 304 | 0.0 | 8.0 | 0.00 | 0.23 | 0.10 | 56 | 1013.5 |
| 20260508022204 | 13 | 306 | 1.6 | 9.7 | 0.00 | 0.25 | 0.10 | 57 | 1013.4 |
| 20260508021704 | 13 | 288 | 1.6 | 9.7 | 0.00 | 0.25 | 0.10 | 56 | 1013.4 |
| 20260508021204 | 13 | 290 | 3.2 | 9.7 | 0.00 | 0.25 | 0.10 | 56 | 1013.2 |
| 20260508020705 | 13 | 311 | 0.0 | 9.7 | 0.00 | 0.25 | 0.10 | 57 | 1013.2 |
| 20260508020206 | 13 | 337 | 3.2 | 9.7 | 0.00 | 0.25 | 0.10 | 56 | 1013.1 |
| 20260508015204 | 13 | 294 | 1.6 | 12.9 | 0.00 | 0.25 | 0.10 | 56 | 1012.8 |
| 20260508014704 | 13 | 309 | 3.2 | 11.3 | 0.00 | 0.25 | 0.10 | 56 | 1012.7 |
| 20260508014204 | 13 | 320 | 4.8 | 12.9 | 0.00 | 0.25 | 0.10 | 57 | 1012.6 |
| 20260508013704 | 13 | 330 | 4.8 | 12.9 | 0.00 | 0.25 | 0.10 | 56 | 1012.6 |
| 20260508013205 | 13 | 323 | 3.2 | 9.7 | 0.00 | 0.25 | 0.10 | 57 | 1012.5 |
| 20260508012206 | 13 | 311 | 1.6 | 4.8 | 0.00 | 0.25 | 0.10 | 55 | 1012.4 |
| 20260508011204 | 14 | 284 | 1.6 | 8.0 | 0.00 | 0.25 | 0.10 | 54 | 1012.2 |
| 20260508010704 | 14 | 328 | 1.6 | 11.3 | 0.00 | 0.25 | 0.10 | 52 | 1012.2 |
| 20260508005205 | 15 | 295 | 4.8 | 12.9 | 0.00 | 0.25 | 0.10 | 51 | 1011.9 |
| 20260508004705 | 15 | 313 | 4.8 | 11.3 | 0.00 | 0.25 | 0.10 | 51 | 1012.0 |
| 20260508004204 | 15 | 282 | 3.2 | 11.3 | 0.00 | 0.25 | 0.10 | 51 | 1012.0 |
| 20260508003704 | 15 | 299 | 4.8 | 12.9 | 0.00 | 0.25 | 0.10 | 50 | 1012.0 |
| 20260508003204 | 15 | 309 | 8.0 | 14.5 | 0.00 | 0.25 | 0.10 | 49 | 1011.9 |
| 20260508002704 | 15 | 322 | 8.0 | 14.5 | 0.00 | 0.25 | 0.10 | 48 | 1011.9 |
| 20260508002204 | 15 | 308 | 6.4 | 14.5 | 0.00 | 0.25 | 0.10 | 48 | 1011.8 |
| 20260508001705 | 16 | 296 | 8.0 | 14.5 | 0.00 | 0.25 | 0.10 | 47 | 1011.8 |
| 20260508001205 | 16 | 306 | 6.4 | 14.5 | 0.00 | 0.25 | 0.10 | 46 | 1011.8 |
| 20260507234705 | 17 | 308 | 11.3 | 25.7 | 0.00 | 0.25 | 0.10 | 43 | 1011.3 |
| 20260507234204 | 17 | 302 | 16.1 | 29.0 | 0.00 | 0.25 | 0.10 | 42 | 1011.2 |
| 20260507233705 | 17 | 307 | 14.5 | 29.0 | 0.00 | 0.25 | 0.10 | 43 | 1011.1 |
| 20260507233205 | 17 | 299 | 11.3 | 22.5 | 0.00 | 0.25 | 0.10 | 44 | 1011.1 |
| 20260507232705 | 17 | 284 | 9.7 | 24.1 | 0.00 | 0.25 | 0.10 | 43 | 1011.0 |
| 20260507232204 | 17 | 315 | 14.5 | 25.7 | 0.00 | 0.25 | 0.10 | 44 | 1010.9 |
| 20260507231704 | 17 | 301 | 14.5 | 25.7 | 0.00 | 0.25 | 0.10 | 43 | 1010.7 |
| 20260507231204 | 17 | 301 | 14.5 | 24.1 | 0.00 | 0.25 | 0.10 | 43 | 1010.8 |
| 20260507230704 | 17 | 297 | 14.5 | 29.0 | 0.00 | 0.25 | 0.10 | 44 | 1010.7 |
| 20260507230206 | 17 | 295 | 16.1 | 29.0 | 0.00 | 0.25 | 0.10 | 45 | 1010.7 |
| 20260507225704 | 17 | 290 | 16.1 | 29.0 | 0.00 | 0.25 | 0.10 | 43 | 1010.7 |
| 20260507224705 | 18 | 304 | 9.7 | 22.5 | 0.00 | 0.25 | 0.10 | 45 | 1010.6 |
| 20260507224204 | 18 | 298 | 14.5 | 32.2 | 0.00 | 0.25 | 0.10 | 44 | 1010.6 |
| 20260507223204 | 18 | 308 | 11.3 | 27.4 | 0.00 | 0.25 | 0.10 | 46 | 1010.5 |
| 20260507222704 | 18 | 300 | 17.7 | 27.4 | 0.00 | 0.25 | 0.10 | 47 | 1010.4 |
| 20260507222204 | 18 | 321 | 20.9 | 29.0 | 0.00 | 0.25 | 0.10 | 48 | 1010.5 |
| 20260507221704 | 18 | 302 | 16.1 | 29.0 | 0.00 | 0.25 | 0.10 | 49 | 1010.4 |
| 20260507221204 | 18 | 311 | 16.1 | 27.4 | 0.00 | 0.25 | 0.10 | 51 | 1010.3 |
| 20260507220705 | 18 | 284 | 16.1 | 27.4 | 0.00 | 0.25 | 0.10 | 72 | 1010.3 |
| 20260507220204 | 17 | 357 | 1.6 | 8.0 | 0.00 | 0.25 | 0.10 | 74 | 1010.2 |
| 20260507215705 | 18 | 13 | 1.6 | 11.3 | 0.00 | 0.25 | 0.10 | 75 | 1010.2 |
| 20260507215205 | 18 | 57 | 3.2 | 12.9 | 0.00 | 0.25 | 0.10 | 74 | 1010.0 |
| 20260507214705 | 18 | 159 | 8.0 | 14.5 | 0.00 | 0.25 | 0.10 | 76 | 1010.0 |
| 20260507214205 | 18 | 101 | 3.2 | 16.1 | 0.00 | 0.25 | 0.10 | 76 | 1010.1 |
| 20260507213705 | 18 | 40 | 3.2 | 16.1 | 0.00 | 0.25 | 0.10 | 78 | 1010.1 |
| 20260507213205 | 17 | 129 | 8.0 | 16.1 | 0.00 | 0.25 | 0.10 | 77 | 1010.1 |
| 20260507212205 | 17 | 146 | 3.2 | 12.9 | 0.00 | 0.25 | 0.10 | 75 | 1010.2 |
| 20260507211205 | 18 | 206 | 3.2 | 11.3 | 0.00 | 0.25 | 0.10 | 71 | 1010.2 |
| 20260507210705 | 17 | 212 | 3.2 | 11.3 | 0.00 | 0.25 | 0.10 | 72 | 1010.2 |
| 20260507210204 | 17 | 172 | 1.6 | 11.3 | 0.00 | 0.25 | 0.10 | 77 | 1010.1 |
| 20260507204705 | 17 | 220 | 4.8 | 12.9 | 0.00 | 0.25 | 0.10 | 80 | 1010.0 |
| 20260507204204 | 17 | 241 | 1.6 | 12.9 | 0.00 | 0.25 | 0.10 | 79 | 1010.0 |
| 20260507203704 | 17 | 172 | 3.2 | 12.9 | 0.00 | 0.25 | 0.10 | 82 | 1010.1 |
| 20260507202205 | 17 | 196 | 4.8 | 12.9 | 0.00 | 0.25 | 0.10 | 86 | 1010.1 |
| 20260507201205 | 16 | 113 | 4.8 | 11.3 | 0.00 | 0.25 | 0.10 | 92 | 1010.1 |
| 20260507200704 | 16 | 156 | 1.6 | 9.7 | 0.00 | 0.25 | 0.10 | 96 | 1010.3 |
| 20260507200205 | 16 | 120 | 3.2 | 11.3 | 0.00 | 0.25 | 0.10 | 96 | 1010.4 |
| 20260507195704 | 15 | 180 | 4.8 | 11.3 | 0.03 | 0.25 | 0.10 | 97 | 1010.5 |
| 20260507195205 | 15 | 151 | 3.2 | 9.7 | 0.05 | 0.25 | 0.10 | 97 | 1010.7 |
| 20260507194705 | 15 | 192 | 3.2 | 9.7 | 0.08 | 0.25 | 0.10 | 99 | 1010.8 |
| 20260507193705 | 15 | 191 | 1.6 | 4.8 | 0.08 | 0.25 | 0.10 | 98 | 1011.1 |
| 20260507193204 | 14 | 208 | 0.0 | 4.8 | 0.08 | 0.25 | 0.10 | 97 | 1011.2 |
| 20260507192704 | 14 | 291 | 0.0 | 3.2 | 0.08 | 0.25 | 0.10 | 98 | 1011.3 |
| 20260507192204 | 14 | 291 | 0.0 | 0.0 | 0.08 | 0.25 | 0.10 | 98 | 1011.2 |
| 20260507191705 | 14 | 291 | 0.0 | 0.0 | 0.10 | 0.25 | 0.10 | 99 | 1011.1 |
| 20260507191204 | 13 | 291 | 0.0 | 0.0 | 0.10 | 0.25 | 0.10 | 98 | 1011.2 |
| 20260507190204 | 15 | 291 | 0.0 | 0.0 | 0.10 | 0.25 | 0.10 | 97 | 1011.5 |
| 20260507185204 | 14 | 291 | 0.0 | 0.0 | 0.05 | 0.20 | 0.05 | 91 | 1011.8 |
| 20260507184704 | 14 | 291 | 0.0 | 0.0 | 0.03 | 0.18 | 0.03 | 94 | 1011.5 |
| 20260507184204 | 14 | 291 | 0.0 | 0.0 | 0.03 | 0.18 | 0.03 | 94 | 1011.7 |
| 20260507183704 | 13 | 291 | 0.0 | 0.0 | 0.03 | 0.18 | 0.03 | 93 | 1011.7 |
| 20260507183205 | 13 | 291 | 0.0 | 0.0 | 0.03 | 0.18 | 0.03 | 94 | 1011.7 |
| 20260507181705 | 14 | 291 | 0.0 | 8.0 | 0.00 | 0.15 | 0.00 | 87 | 1011.7 |
| 20260507181204 | 14 | 291 | 1.6 | 8.0 | 0.00 | 0.15 | 0.00 | 88 | 1011.7 |
| 20260507180204 | 14 | 357 | 0.0 | 9.7 | 0.00 | 0.15 | 0.00 | 89 | 1011.8 |
| 20260507175704 | 14 | 357 | 0.0 | 9.7 | 0.00 | 0.15 | 0.00 | 88 | 1011.7 |
| 20260507175205 | 14 | 357 | 3.2 | 9.7 | 0.00 | 0.15 | 0.00 | 88 | 1011.5 |
| 20260507174704 | 14 | 351 | 1.6 | 8.0 | 0.00 | 0.15 | 0.00 | 89 | 1011.7 |
| 20260507174204 | 14 | 0 | 0.0 | 8.0 | 0.00 | 0.15 | 0.00 | 92 | 1011.5 |
| 20260507173704 | 14 | 0 | 1.6 | 8.0 | 0.00 | 0.15 | 0.00 | 92 | 1011.8 |
| 20260507173205 | 14 | 285 | 3.2 | 9.7 | 0.00 | 0.15 | 0.00 | 92 | 1011.8 |
| 20260507172705 | 14 | 337 | 4.8 | 9.7 | 0.00 | 0.15 | 0.00 | 92 | 1011.5 |
| 20260507172205 | 14 | 354 | 1.6 | 9.7 | 0.00 | 0.15 | 0.00 | 90 | 1011.8 |
| 20260507171705 | 14 | 327 | 1.6 | 9.7 | 0.00 | 0.15 | 0.00 | 88 | 1011.9 |
| 20260507170704 | 14 | 16 | 4.8 | 11.3 | 0.00 | 0.15 | 0.00 | 87 | 1011.8 |
| 20260507170204 | 14 | 326 | 4.8 | 19.3 | 0.00 | 0.15 | 0.00 | 87 | 1011.9 |
| 20260507165705 | 14 | 34 | 1.6 | 19.3 | 0.00 | 0.15 | 0.00 | 86 | 1011.8 |
| 20260507165204 | 14 | 0 | 6.4 | 19.3 | 0.00 | 0.15 | 0.00 | 86 | 1012.0 |
| 20260507164705 | 14 | 45 | 1.6 | 16.1 | 0.00 | 0.15 | 0.00 | 86 | 1011.9 |
| 20260507164205 | 15 | 2 | 9.7 | 16.1 | 0.00 | 0.15 | 0.00 | 86 | 1011.9 |
| 20260507163705 | 15 | 35 | 1.6 | 19.3 | 0.00 | 0.15 | 0.00 | 86 | 1011.7 |
| 20260507163204 | 15 | 335 | 8.0 | 19.3 | 0.00 | 0.15 | 0.00 | 85 | 1011.7 |
| 20260507162704 | 14 | 317 | 11.3 | 19.3 | 0.00 | 0.15 | 0.00 | 84 | 1011.8 |
| 20260507162205 | 15 | 287 | 0.0 | 12.9 | 0.00 | 0.15 | 0.00 | 84 | 1011.8 |
| 20260507161705 | 15 | 352 | 3.2 | 19.3 | 0.00 | 0.15 | 0.00 | 84 | 1011.8 |
| 20260507161204 | 15 | 333 | 8.0 | 19.3 | 0.00 | 0.15 | 0.00 | 84 | 1011.7 |
| 20260507160705 | 15 | 334 | 6.4 | 19.3 | 0.00 | 0.15 | 0.00 | 84 | 1011.8 |
| 20260507160205 | 15 | 354 | 8.0 | 12.9 | 0.00 | 0.15 | 0.00 | 85 | 1011.9 |
| 20260507155705 | 15 | 343 | 6.4 | 14.5 | 0.00 | 0.15 | 0.00 | 85 | 1012.0 |
| 20260507155204 | 15 | 320 | 9.7 | 19.3 | 0.00 | 0.15 | 0.00 | 85 | 1012.0 |
| 20260507154704 | 15 | 0 | 3.2 | 19.3 | 0.00 | 0.15 | 0.00 | 85 | 1012.3 |
| 20260507154205 | 15 | 347 | 4.8 | 14.5 | 0.00 | 0.15 | 0.00 | 85 | 1012.3 |
| 20260507153705 | 15 | 343 | 6.4 | 14.5 | 0.00 | 0.15 | 0.00 | 85 | 1012.2 |
| 20260507153205 | 15 | 352 | 8.0 | 14.5 | 0.00 | 0.15 | 0.00 | 85 | 1012.2 |
| 20260507152705 | 15 | 323 | 1.6 | 14.5 | 0.00 | 0.15 | 0.00 | 86 | 1012.2 |
| 20260507151705 | 15 | 346 | 6.4 | 19.3 | 0.00 | 0.15 | 0.00 | 85 | 1012.1 |
| 20260507151205 | 15 | 11 | 1.6 | 14.5 | 0.00 | 0.15 | 0.00 | 85 | 1012.1 |
| 20260507150705 | 15 | 1 | 3.2 | 11.3 | 0.00 | 0.15 | 0.00 | 84 | 1012.0 |
| 20260507150204 | 15 | 37 | 4.8 | 12.9 | 0.00 | 0.15 | 0.00 | 84 | 1012.0 |
| 20260507145704 | 15 | 55 | 1.6 | 12.9 | 0.00 | 0.15 | 0.00 | 84 | 1011.9 |
| 20260507145205 | 15 | 349 | 1.6 | 11.3 | 0.00 | 0.15 | 0.00 | 84 | 1012.0 |
| 20260507144704 | 15 | 343 | 3.2 | 14.5 | 0.00 | 0.15 | 0.00 | 83 | 1012.0 |
| 20260507144204 | 15 | 302 | 4.8 | 14.5 | 0.00 | 0.15 | 0.00 | 84 | 1011.9 |
| 20260507143704 | 15 | 329 | 8.0 | 14.5 | 0.00 | 0.15 | 0.00 | 84 | 1011.9 |
| 20260507143204 | 15 | 8 | 4.8 | 16.1 | 0.00 | 0.15 | 0.00 | 84 | 1011.9 |
| 20260507142704 | 15 | 327 | 8.0 | 19.3 | 0.00 | 0.15 | 0.00 | 84 | 1011.9 |
| 20260507142205 | 15 | 354 | 9.7 | 20.9 | 0.00 | 0.15 | 0.00 | 83 | 1011.9 |
| 20260507141704 | 15 | 6 | 6.4 | 20.9 | 0.00 | 0.15 | 0.00 | 84 | 1012.1 |
| 20260507141205 | 15 | 356 | 9.7 | 22.5 | 0.00 | 0.15 | 0.00 | 84 | 1012.0 |
| 20260507140705 | 15 | 325 | 9.7 | 22.5 | 0.00 | 0.15 | 0.00 | 83 | 1011.8 |
| 20260507140204 | 16 | 350 | 4.8 | 14.5 | 0.00 | 0.15 | 0.00 | 86 | 1011.4 |
| 20260507135704 | 16 | 4 | 4.8 | 12.9 | 0.00 | 0.15 | 0.00 | 85 | 1011.5 |
| 20260507134704 | 16 | 27 | 1.6 | 19.3 | 0.00 | 0.15 | 0.00 | 86 | 1012.1 |
| 20260507134204 | 16 | 7 | 8.0 | 20.9 | 0.00 | 0.15 | 0.00 | 87 | 1012.2 |
| 20260507133706 | 16 | 292 | 11.3 | 20.9 | 0.00 | 0.15 | 0.00 | 87 | 1012.1 |
| 20260507133205 | 15 | 337 | 11.3 | 20.9 | 0.00 | 0.18 | 0.00 | 87 | 1012.0 |
| 20260507132705 | 16 | 336 | 8.0 | 14.5 | 0.00 | 0.18 | 0.00 | 88 | 1012.0 |
| 20260507132204 | 16 | 323 | 4.8 | 19.3 | 0.00 | 0.18 | 0.00 | 89 | 1012.0 |
| 20260507131705 | 15 | 322 | 12.9 | 19.3 | 0.00 | 0.18 | 0.00 | 89 | 1012.2 |
| 20260507131205 | 15 | 347 | 12.9 | 19.3 | 0.00 | 0.18 | 0.00 | 89 | 1012.2 |
| 20260507130704 | 16 | 316 | 9.7 | 16.1 | 0.00 | 0.18 | 0.00 | 90 | 1012.1 |
| 20260507130205 | 16 | 316 | 8.0 | 12.9 | 0.00 | 0.18 | 0.00 | 90 | 1011.9 |
| 20260507125704 | 15 | 332 | 8.0 | 12.9 | 0.00 | 0.18 | 0.00 | 90 | 1012.0 |
| 20260507125204 | 16 | 357 | 0.0 | 19.3 | 0.00 | 0.18 | 0.00 | 92 | 1011.9 |
| 20260507124705 | 15 | 290 | 4.8 | 19.3 | 0.00 | 0.18 | 0.00 | 91 | 1012.0 |
| 20260507124204 | 15 | 326 | 9.7 | 19.3 | 0.00 | 0.18 | 0.00 | 92 | 1012.0 |
| 20260507123705 | 15 | 5 | 9.7 | 16.1 | 0.00 | 0.18 | 0.00 | 91 | 1012.0 |
| 20260507123204 | 15 | 331 | 8.0 | 16.1 | 0.00 | 0.18 | 0.00 | 92 | 1012.1 |
| 20260507121205 | 15 | 21 | 3.2 | 20.9 | 0.00 | 0.18 | 0.00 | 94 | 1011.8 |
| 20260507120205 | 15 | 350 | 6.4 | 22.5 | 0.00 | 0.18 | 0.00 | 94 | 1011.9 |
| 20260507115706 | 15 | 355 | 9.7 | 16.1 | 0.00 | 0.18 | 0.00 | 94 | 1011.9 |
| 20260507115205 | 15 | 17 | 8.0 | 14.5 | 0.00 | 0.18 | 0.00 | 95 | 1011.9 |
| 20260507114205 | 15 | 2 | 8.0 | 12.9 | 0.00 | 0.18 | 0.00 | 95 | 1011.8 |
| 20260507113206 | 15 | 4 | 3.2 | 11.3 | 0.00 | 0.18 | 0.00 | 96 | 1011.8 |
| 20260507112705 | 15 | 353 | 0.0 | 11.3 | 0.00 | 0.18 | 0.00 | 96 | 1011.7 |
| 20260507112205 | 15 | 325 | 6.4 | 11.3 | 0.00 | 0.18 | 0.00 | 96 | 1011.7 |
| 20260507111705 | 15 | 330 | 3.2 | 11.3 | 0.00 | 0.18 | 0.00 | 96 | 1011.4 |
| 20260507111205 | 15 | 308 | 1.6 | 4.8 | 0.00 | 0.18 | 0.00 | 96 | 1011.3 |
| 20260507110705 | 15 | 240 | 0.0 | 8.0 | 0.00 | 0.18 | 0.00 | 96 | 1011.2 |
| 20260507110205 | 15 | 240 | 0.0 | 12.9 | 0.00 | 0.18 | 0.00 | 96 | 1011.4 |
| 20260507105704 | 15 | 296 | 8.0 | 12.9 | 0.00 | 0.18 | 0.00 | 96 | 1011.3 |
| 20260507105205 | 15 | 327 | 4.8 | 12.9 | 0.00 | 0.18 | 0.00 | 96 | 1011.2 |
| 20260507104705 | 15 | 320 | 4.8 | 14.5 | 0.00 | 0.18 | 0.00 | 97 | 1011.2 |
| 20260507104206 | 15 | 317 | 8.0 | 14.5 | 0.00 | 0.18 | 0.00 | 97 | 1011.0 |
| 20260507103705 | 15 | 346 | 3.2 | 11.3 | 0.00 | 0.18 | 0.00 | 98 | 1011.0 |
| 20260507103206 | 15 | 337 | 4.8 | 14.5 | 0.00 | 0.18 | 0.00 | 98 | 1011.1 |
| 20260507100704 | 16 | 313 | 1.6 | 9.7 | 0.00 | 0.18 | 0.00 | 99 | 1011.0 |
| 20260507100204 | 15 | 343 | 4.8 | 9.7 | 0.00 | 0.18 | 0.00 | 99 | 1011.0 |
| 20260507095705 | 15 | 355 | 3.2 | 11.3 | 0.00 | 0.18 | 0.00 | 99 | 1010.8 |
| 20260507095205 | 15 | 328 | 8.0 | 14.5 | 0.00 | 0.18 | 0.00 | 99 | 1011.0 |
| 20260507094705 | 15 | 304 | 4.8 | 14.5 | 0.00 | 0.18 | 0.00 | 99 | 1011.3 |
| 20260507094204 | 16 | 328 | 3.2 | 14.5 | 0.00 | 0.18 | 0.00 | 99 | 1010.9 |
| 20260507093705 | 16 | 335 | 3.2 | 11.3 | 0.00 | 0.18 | 0.00 | 99 | 1010.9 |
| 20260507093204 | 15 | 334 | 1.6 | 14.5 | 0.00 | 0.18 | 0.00 | 99 | 1011.2 |
| 20260507092704 | 16 | 299 | 4.8 | 14.5 | 0.00 | 0.18 | 0.00 | 99 | 1011.3 |
| 20260507092204 | 16 | 328 | 4.8 | 14.5 | 0.00 | 0.18 | 0.00 | 99 | 1011.4 |
| 20260507091704 | 16 | 325 | 4.8 | 14.5 | 0.00 | 0.18 | 0.00 | 99 | 1011.1 |
| 20260507091204 | 16 | 332 | 9.7 | 14.5 | 0.00 | 0.18 | 0.00 | 99 | 1011.0 |
| 20260507090705 | 16 | 359 | 4.8 | 11.3 | 0.00 | 0.18 | 0.00 | 99 | 1010.8 |
| 20260507090205 | 16 | 53 | 1.6 | 11.3 | 0.00 | 0.18 | 0.00 | 99 | 1010.3 |
| 20260507085704 | 16 | 0 | 0.0 | 14.5 | 0.00 | 0.18 | 0.00 | 99 | 1010.8 |
| 20260507085204 | 16 | 339 | 4.8 | 14.5 | 0.00 | 0.18 | 0.00 | 99 | 1010.8 |
| 20260507084704 | 16 | 1 | 4.8 | 14.5 | 0.00 | 0.18 | 0.00 | 99 | 1010.8 |
| 20260507084204 | 16 | 308 | 4.8 | 14.5 | 0.00 | 0.18 | 0.00 | 99 | 1010.9 |
| 20260507083705 | 16 | 274 | 1.6 | 8.0 | 0.00 | 0.18 | 0.00 | 99 | 1011.3 |
| 20260507082705 | 16 | 246 | 0.0 | 0.0 | 0.00 | 0.18 | 0.00 | 99 | 1011.1 |
| 20260507082204 | 16 | 246 | 0.0 | 0.0 | 0.00 | 0.18 | 0.00 | 99 | 1011.0 |
| 20260507081705 | 16 | 246 | 0.0 | 0.0 | 0.00 | 0.18 | 0.00 | 99 | 1011.0 |
| 20260507081205 | 16 | 246 | 0.0 | 0.0 | 0.00 | 0.18 | 0.00 | 99 | 1011.1 |
| 20260507075704 | 16 | 13 | 0.0 | 8.0 | 0.00 | 0.18 | 0.00 | 99 | 1011.1 |
| 20260507075205 | 16 | 1 | 1.6 | 8.0 | 0.00 | 0.18 | 0.00 | 99 | 1011.3 |
| 20260507074705 | 16 | 250 | 0.0 | 4.8 | 0.00 | 0.18 | 0.00 | 99 | 1011.3 |
| 20260507074204 | 16 | 248 | 0.0 | 0.0 | 0.00 | 0.18 | 0.00 | 99 | 1011.5 |
| 20260507073706 | 16 | 248 | 0.0 | 4.8 | 0.00 | 0.18 | 0.00 | 99 | 1011.1 |
| 20260507073204 | 17 | 248 | 0.0 | 11.3 | 0.00 | 0.18 | 0.00 | 99 | 1011.1 |
| 20260507072704 | 17 | 291 | 0.0 | 11.3 | 0.00 | 0.18 | 0.00 | 99 | 1011.2 |
| 20260507071206 | 16 | 320 | 4.8 | 12.9 | 0.00 | 0.18 | 0.00 | 99 | 1011.0 |
| 20260507070205 | 16 | 344 | 0.0 | 11.3 | 0.00 | 0.18 | 0.00 | 99 | 1011.0 |
| 20260507065205 | 17 | 124 | 0.0 | 3.2 | 0.00 | 0.18 | 0.00 | 99 | 1010.9 |
| 20260507064704 | 17 | 124 | 0.0 | 0.0 | 0.00 | 0.18 | 0.00 | 99 | 1010.7 |
| 20260507064206 | 17 | 124 | 0.0 | 0.0 | 0.00 | 0.18 | 0.00 | 99 | 1011.2 |
| 20260507062704 | 17 | 124 | 0.0 | 0.0 | 0.00 | 0.18 | 0.00 | 99 | 1010.9 |
| 20260507062204 | 17 | 124 | 0.0 | 0.0 | 0.00 | 0.18 | 0.00 | 99 | 1011.0 |
| 20260507061704 | 17 | 124 | 0.0 | 0.0 | 0.00 | 0.18 | 0.00 | 99 | 1010.8 |
| 20260507060704 | 17 | 124 | 0.0 | 0.0 | 0.00 | 0.18 | 0.00 | 99 | 1010.8 |
| 20260507055705 | 17 | 124 | 0.0 | 0.0 | 0.00 | 0.18 | 0.00 | 99 | 1011.3 |
| 20260507055205 | 17 | 124 | 0.0 | 0.0 | 0.00 | 0.18 | 0.00 | 99 | 1011.2 |
| 20260507054205 | 17 | 124 | 0.0 | 0.0 | 0.00 | 0.18 | 0.00 | 99 | 1011.4 |
| 20260507053205 | 17 | 124 | 0.0 | 0.0 | 0.00 | 0.18 | 0.00 | 99 | 1011.8 |
| 20260507052706 | 17 | 124 | 0.0 | 0.0 | 0.00 | 0.18 | 0.00 | 99 | 1011.9 |
| 20260507051704 | 17 | 124 | 0.0 | 8.0 | 0.00 | 0.18 | 0.00 | 99 | 1011.7 |
| 20260507051205 | 17 | 124 | 1.6 | 9.7 | 0.00 | 0.18 | 0.00 | 99 | 1011.3 |
| 20260507050204 | 17 | 159 | 0.0 | 4.8 | 0.00 | 0.18 | 0.00 | 99 | 1011.4 |
| 20260507045704 | 17 | 152 | 0.0 | 0.0 | 0.00 | 0.18 | 0.00 | 99 | 1011.1 |
| 20260507045204 | 17 | 152 | 0.0 | 4.8 | 0.00 | 0.18 | 0.00 | 99 | 1011.2 |
| 20260507044704 | 17 | 152 | 0.0 | 4.8 | 0.00 | 0.18 | 0.00 | 99 | 1011.0 |
| 20260507044205 | 17 | 166 | 3.2 | 4.8 | 0.00 | 0.18 | 0.00 | 99 | 1010.9 |